• Join FlightAware (Why Join?)
  • Login
  • US Flag 
05:05PM EDT


 

Airport Tracker/Info


-or-


 

Live Flight TrackerFlight Track Log ✈ XOJ549 ✈ 01-May-2013 ✈ MBPV / PLS - KILM

Flight Track Log - Related Links

Times and Time Zones

All times are in EDT time to prevent confusion due to time zone crossing. See the XOJ549 flight status page for this flight to view local times or setup timezone preferences in your user account.

Time Position Orientation Groundspeed Altitude Reporting Facility
EDT Latitude Longitude Course Direction KTS MPH feet Rate Location/Type
05:11PM 21.9083 -72.3233 322° Northwest 370 426 10,900  Level Miami Center
05:12PM 21.9769 -72.3769 324° Northwest 336 387 14,400 3,480 Climbing Miami Center
05:13PM 22.0475 -72.4372 322° Northwest 323 372 17,900 3,180 Climbing Miami Center
05:14PM 22.1286 -72.4972 326° Northwest 329 379 20,800 2,760 Climbing Miami Center
05:15PM 22.2097 -72.5639 323° Northwest 351 404 23,500 2,700 Climbing Miami Center
05:16PM 22.3601 -72.5023 338° Northwest  Level FlightAware Approximate
05:16PM 22.2950 -72.6286 325° Northwest 364 419 26,200  Level Miami Center
05:17PM 22.3806 -72.7044 321° Northwest 381 438 27,000 540 Climbing Miami Center
05:18PM 22.4725 -72.7778 324° Northwest 402 463 27,300 600 Climbing Miami Center
05:19PM 22.5706 -72.8533 325° Northwest 414 476 28,200 1,260 Climbing Miami Center
05:20PM 22.6689 -72.9381 322° Northwest 437 503 29,900 1,800 Climbing Miami Center
05:21PM 22.7711 -73.0161 325° Northwest 448 516 31,900 1,920 Climbing Miami Center
05:22PM 22.8628 -73.0967 321° Northwest 442 509 33,800 1,020 Climbing Miami Center
05:23PM 22.9525 -73.1708 323° Northwest 420 483 34,000 240 Climbing Miami Center
05:24PM 23.0503 -73.2492 324° Northwest 427 491 34,300 1,140 Climbing Miami Center
05:25PM 23.1461 -73.3256 324° Northwest 427 491 36,300 1,920 Climbing Miami Center
05:26PM 23.2419 -73.4044 323° Northwest 427 491 38,200 1,860 Climbing Miami Center
05:27PM 23.3336 -73.4811 322° Northwest 432 497 40,100 1,800 Climbing Miami Center
05:28PM 23.4208 -73.5511 324° Northwest 422 486 41,900 1,440 Climbing Miami Center
05:29PM 23.5081 -73.6214 324° Northwest 399 459 43,000 540 Climbing Miami Center
05:30PM 23.5931 -73.6939 322° Northwest 399 459 43,000  Level Miami Center
05:31PM 23.6886 -73.7733 323° Northwest 408 470 43,000  Level Miami Center
05:32PM 23.7844 -73.8503 324° Northwest 421 484 43,000  Level Miami Center
05:33PM 23.8778 -73.9275 323° Northwest 421 484 43,000  Level Miami Center
05:34PM 23.9756 -74.0094 323° Northwest 429 494 43,000  Level Miami Center
05:35PM 24.0711 -74.0892 323° Northwest 436 502 43,000  Level Miami Center
05:36PM 24.1644 -74.1647 324° Northwest 430 495 43,000  Level Miami Center
05:37PM 24.2578 -74.2447 322° Northwest 425 489 43,000  Level Miami Center
05:38PM 24.3489 -74.3203 323° Northwest 425 489 43,000  Level Miami Center
05:39PM 24.4442 -74.4006 323° Northwest 425 489 43,000  Level Miami Center
05:40PM 24.5375 -74.4786 323° Northwest 425 489 43,000  Level Miami Center
05:41PM 24.6328 -74.5589 323° Northwest 425 489 43,000  Level Miami Center
05:42PM 24.7239 -74.6350 323° Northwest 425 489 43,000  Level Miami Center
05:43PM 24.8211 -74.7203 321° Northwest 430 495 43,000  Level Miami Center
05:44PM 24.9142 -74.8011 322° Northwest 424 488 43,000  Level Miami Center
05:45PM 25.0053 -74.8775 323° Northwest 424 488 43,000  Level Miami Center
05:46PM 25.1003 -74.9564 323° Northwest 424 488 43,000  Level Miami Center
05:47PM 25.1933 -75.0375 322° Northwest 424 488 43,000  Level Miami Center
05:48PM 25.2883 -75.1167 323° Northwest 424 488 43,000  Level Miami Center
05:49PM 25.3811 -75.1958 322° Northwest 430 495 43,000  Level Miami Center
05:50PM 25.4781 -75.2842 321° Northwest 430 495 43,000  Level Miami Center
05:51PM 25.5711 -75.3658 322° Northwest 425 489 43,000  Level Miami Center
05:52PM 25.6553 -75.4317 325° Northwest 425 489 43,000  Level Miami Center
05:53PM 25.7522 -75.5158 322° Northwest 432 497 43,000  Level Miami Center
05:54PM 25.8469 -75.5981 322° Northwest 432 497 43,000  Level Miami Center
05:55PM 25.9436 -75.6825 322° Northwest 434 499 43,000  Level Miami Center
05:56PM 26.0364 -75.7647 321° Northwest 429 494 43,000  Level Miami Center
05:57PM 26.1308 -75.8472 322° Northwest 429 494 43,100 300 Climbing Miami Center
05:58PM 26.2233 -75.9297 321° Northwest 417 480 43,700 600 Climbing Miami Center
05:59PM 26.3181 -76.0103 323° Northwest 431 496 44,300 600 Climbing Miami Center
06:00PM 26.4167 -76.0978 322° Northwest 431 496 44,900 300 Climbing Miami Center
06:01PM 26.5111 -76.1806 322° Northwest 432 497 45,000  Climbing Miami Center
06:02PM 26.6033 -76.2639 321° Northwest 444 511 45,000  Level Miami Center
06:03PM 26.6956 -76.3447 322° Northwest 433 498 45,000  Level Miami Center
06:04PM 26.7878 -76.4233 323° Northwest 428 493 45,000  Level Miami Center
06:05PM 26.8842 -76.5117 321° Northwest 423 487 45,000  Level Miami Center
06:06PM 26.9742 -76.5906 322° Northwest 430 495 45,000  Level Miami Center
06:07PM 27.0683 -76.6742 322° Northwest 423 487 45,000  Level Miami Center
06:08PM 27.1603 -76.7558 322° Northwest 428 493 45,000  Level Miami Center
06:09PM 27.2522 -76.8353 322° Northwest 425 489 45,000  Level Miami Center
06:10PM 27.3483 -76.9289 319° Northwest 425 489 45,000  Level Miami Center
06:11PM 27.4444 -77.0083 324° Northwest 432 497 45,000  Level Miami Center
06:12PM 27.5633 -77.0414 346° North 415 478 45,000  Level Miami Center
06:13PM 27.6906 -77.0650 351° North 437 503 45,000  Level Miami Center
06:14PM 27.8181 -77.0794 354° North 442 509 45,000  Level Miami Center
06:15PM 27.9433 -77.0914 355° North 448 516 45,000  Level Miami Center
06:16PM 28.0664 -77.0917 360° North 448 516 45,000  Level Miami Center
06:17PM 28.2083 -77.1178 351° North 448 516 45,000  Level Miami Center
06:18PM 28.3378 -77.1347 353° North 448 516 45,000  Level Miami Center
06:19PM 28.4569 -77.1467 355° North 443 510 45,000  Level Miami Center
06:20PM 28.5800 -77.1636 353° North 443 510 45,000  Level Miami Center
06:21PM 28.7053 -77.1756 355° North 455 524 45,000  Level Miami Center
06:22PM 28.8303 -77.1925 353° North 439 505 45,000  Level Miami Center
06:23PM 28.9408 -77.2047 354° North 454 522 45,000  Level Miami Center
06:24PM 29.0744 -77.2194 354° North 452 520 45,000  Level Miami Center
06:25PM 29.2017 -77.2389 352° North 459 528 45,000  Level Miami Center
06:26PM 29.3289 -77.2511 355° North 464 534 45,000  Level Miami Center
06:27PM 29.4519 -77.2683 353° North 457 526 45,000  Level Miami Center
06:28PM 29.5792 -77.2831 354° North 457 526 45,000  Level Miami Center
06:29PM 29.6486 -77.2847 359° North 439 505 45,000  Level Jacksonville Center
06:30PM 29.7872 -77.3078 352° North 479 551 45,000  Level Jacksonville Center
06:31PM 29.9067 -77.3178 356° North 441 507 45,000  Level Jacksonville Center
06:32PM 30.0303 -77.3297 355° North 453 521 45,000  Level Jacksonville Center
06:33PM 30.1583 -77.3486 353° North 462 532 45,000  Level Jacksonville Center
06:34PM 30.2972 -77.3744 351° North 462 532 45,000  Level Jacksonville Center
06:35PM 30.4233 -77.3911 353° North 458 527 45,000  Level Jacksonville Center
06:36PM 30.5489 -77.4033 355° North 458 527 45,000  Level Jacksonville Center
06:37PM 30.6744 -77.4106 357° North 458 527 45,000  Level Jacksonville Center
06:38PM 30.8003 -77.4225 355° North 453 521 45,000  Level Jacksonville Center
06:39PM 30.9261 -77.4369 354° North 446 513 45,000  Level Jacksonville Center
06:40PM 31.0519 -77.4492 355° North 437 503 45,000  Level Jacksonville Center
06:41PM 31.1739 -77.4689 352° North 447 514 45,000  Level Jacksonville Center
06:42PM 31.2972 -77.4786 356° North 453 521 45,000  Level Jacksonville Center
06:43PM 31.4192 -77.4983 352° North 442 509 45,000 -60 Level Jacksonville Center
06:44PM 31.5431 -77.5131 354° North 448 516 44,900  Descending Jacksonville Center
06:45PM 31.6644 -77.5231 356° North 437 503 45,000 -300 Climbing Jacksonville Center
06:46PM 31.7883 -77.5403 353° North 434 499 44,300 -960 Descending Jacksonville Center
06:47PM 31.9058 -77.5531 355° North 439 505 43,100 -1,440 Descending Jacksonville Center
06:48PM 32.0172 -77.5711 352° North 421 484 41,500 -1,800 Descending Jacksonville Center
06:49PM 32.1325 -77.5867 353° North 408 470 39,500 -2,040 Descending Jacksonville Center
06:50PM 32.2544 -77.6042 353° North 418 481 37,500 -2,040 Descending Jacksonville Center
06:51PM 32.3739 -77.6192 354° North 425 489 35,500 -2,040 Descending Jacksonville Center
06:52PM 32.4914 -77.6347 354° North 430 495 33,500 -2,040 Descending Jacksonville Center
06:53PM 32.6111 -77.6497 354° North 425 489 31,500 -2,040 Descending Jacksonville Center
06:54PM 32.7369 -77.6622 355° North 435 501 29,500 -2,040 Descending Jacksonville Center
06:55PM 32.8586 -77.6800 353° North 441 507 27,500 -2,040 Descending Jacksonville Center
06:56PM 32.9825 -77.6975 353° North 441 507 25,500 -2,040 Descending Jacksonville Center
06:57PM 33.0978 -77.7106 355° North 434 499 23,500 -2,040 Descending Jacksonville Center
06:58PM 33.2133 -77.7289 352° North 422 486 21,500 -2,040 Descending Jacksonville Center
06:59PM 33.3244 -77.7422 354° North 411 473 19,500 -1,980 Descending Jacksonville Center
07:00PM 33.4356 -77.7581 353° North 406 467 17,600 -2,160 Descending Jacksonville Center
07:02PM 33.6739 -77.7878 354° North 360 414 12,300 -1,980 Descending Washington Center
07:03PM 33.7697 -77.8003 354° North 353 406 10,900 -960 Descending Washington Center
07:04PM 33.8572 -77.8100 355° North 334 384 10,400 -1,200 Descending Washington Center
07:05PM 33.9253 -77.8469 336° Northwest 280 322 8,600 -1,740 Descending Washington Center
07:06PM 33.9658 -77.9031 311° West 275 316 7,000 -1,920 Descending Washington Center
07:07PM 34.0144 -77.9869 305° West 275 316 4,800 -1,560 Descending Washington Center
07:08PM 34.0419 -78.0606 294° West 265 305 3,900 -780 Descending Washington Center
07:09PM 34.0553 -78.1236 284° West 227 261 3,300 -540 Descending Washington Center
07:10PM 34.1033 -78.1250 359° North 182 209 2,900 -240 Descending Washington Center
07:11PM 34.1333 -78.0858 47° Northeast 123 142 2,900  Level Washington Center